ADDS TAF Data INFO
IDs: Format: Raw Decoded Include METARs

Data at: 1533 UTC 20 May 2018

KTCS 201453Z AUTO 02014G22KT 10SM CLR 20/06 A3008 RMK AO2 SLP106 T02000056 51016 $

KTCS 201120Z 2012/2112 01012KT P6SM SKC
  FM202000 18015G25KT P6SM FEW100 FEW250
  FM210400 18007KT P6SM FEW250